Time;durP1;ratioP1;P1;durP2;ratioP2;P2;SDS_P1;SDS_P2;PMS_P1;PMS_P2;Temp;Humidity;BMP_temperature;BMP_pressure;BME280_temperature;BME280_humidity;BME280_pressure;Samples;Min_cycle;Max_cycle;Signal;HPM_P1;HPM_P2
2023/02/06 00:01:29;;;;;;;7.97;5.00;;;;;;;6.20;100.00;98184.41;5046308;28;20095;-54
2023/02/06 00:03:58;;;;;;;15.35;8.57;;;;;;;6.60;100.00;98182.41;5053143;28;20084;-55
2023/02/06 00:06:26;;;;;;;13.65;8.40;;;;;;;6.74;100.00;98168.59;5049774;28;20400;-54
2023/02/06 00:08:54;;;;;;;15.50;9.23;;;;;;;6.86;100.00;98173.22;5050891;28;20076;-56
2023/02/06 00:11:25;;;;;;;14.48;8.68;;;;;;;6.68;100.00;98176.78;5041205;28;20072;-53
2023/02/06 00:13:53;;;;;;;13.68;9.05;;;;;;;6.84;100.00;98169.81;5049865;28;20100;-56
2023/02/06 00:16:23;;;;;;;13.32;8.48;;;;;;;6.87;99.72;98181.00;5045852;28;20080;-51
2023/02/06 00:18:53;;;;;;;14.70;9.13;;;;;;;6.82;97.99;98190.03;5040500;28;20088;-57
2023/02/06 00:21:23;;;;;;;17.17;9.82;;;;;;;6.86;94.67;98187.19;5055865;28;20527;-56
2023/02/06 00:23:52;;;;;;;15.57;10.13;;;;;;;6.71;97.45;98187.09;5049787;28;20080;-58
2023/02/06 00:26:22;;;;;;;14.30;9.85;;;;;;;6.65;98.67;98185.66;5049094;28;20540;-52
2023/02/06 00:28:52;;;;;;;13.00;9.73;;;;;;;6.37;100.00;98183.56;5046090;28;20115;-53
2023/02/06 00:31:21;;;;;;;17.15;10.55;;;;;;;6.33;100.00;98195.09;5049618;28;20095;-54
2023/02/06 00:33:49;;;;;;;15.20;10.40;;;;;;;6.44;100.00;98197.22;5047697;28;20516;-54
2023/02/06 00:36:17;;;;;;;15.43;9.38;;;;;;;6.70;97.47;98198.53;5045405;28;20080;-57
2023/02/06 00:38:46;;;;;;;13.52;8.48;;;;;;;6.68;94.86;98192.53;5048348;28;20081;-53
2023/02/06 00:41:14;;;;;;;14.00;9.35;;;;;;;6.09;100.00;98203.25;5046355;28;20087;-58
2023/02/06 00:43:43;;;;;;;14.63;9.68;;;;;;;6.55;98.68;98198.38;5051914;28;20083;-51
2023/02/06 00:46:13;;;;;;;14.05;9.32;;;;;;;6.13;99.17;98190.88;5046738;28;20064;-53
2023/02/06 00:48:41;;;;;;;17.23;9.50;;;;;;;6.30;99.59;98192.66;5035151;28;20076;-54
2023/02/06 00:51:10;;;;;;;15.32;9.85;;;;;;;6.36;100.00;98202.81;5049400;28;20088;-53
2023/02/06 00:53:38;;;;;;;13.00;8.43;;;;;;;6.41;98.59;98198.22;5044474;28;21048;-55
2023/02/06 00:56:07;;;;;;;14.93;9.18;;;;;;;6.41;98.79;98201.69;5053279;28;20088;-54
2023/02/06 00:58:35;;;;;;;15.35;8.88;;;;;;;6.46;98.45;98204.06;5047601;28;20325;-52
2023/02/06 01:01:04;;;;;;;14.63;9.02;;;;;;;6.72;95.27;98207.16;5051687;28;20075;-52
2023/02/06 01:03:34;;;;;;;13.77;8.55;;;;;;;6.72;95.27;98200.16;5041896;28;20072;-57
2023/02/06 01:06:02;;;;;;;17.83;9.70;;;;;;;6.31;95.33;98203.06;5042290;28;20084;-54
2023/02/06 01:08:31;;;;;;;15.18;8.77;;;;;;;6.02;98.14;98214.97;5047468;28;20091;-55
2023/02/06 01:10:59;;;;;;;12.55;8.20;;;;;;;5.90;98.76;98216.34;5041875;28;20088;-55
2023/02/06 01:13:28;;;;;;;17.60;9.32;;;;;;;5.37;100.00;98216.22;5043682;28;20084;-55
2023/02/06 01:15:56;;;;;;;13.68;8.95;;;;;;;6.02;100.00;98208.84;5048088;28;20073;-54
2023/02/06 01:18:25;;;;;;;13.85;8.88;;;;;;;5.63;100.00;98196.69;5048767;28;20072;-55
2023/02/06 01:20:55;;;;;;;18.67;8.32;;;;;;;5.64;100.00;98204.47;5054116;28;20068;-54
2023/02/06 01:23:24;;;;;;;15.07;9.13;;;;;;;5.85;98.18;98197.38;5055410;28;20150;-54
2023/02/06 01:25:53;;;;;;;15.07;8.13;;;;;;;5.90;100.00;98205.03;5045223;28;20072;-55
2023/02/06 01:28:21;;;;;;;15.32;9.07;;;;;;;6.07;95.07;98205.09;5046432;28;20092;-58
2023/02/06 01:30:50;;;;;;;14.38;9.15;;;;;;;6.15;94.84;98213.41;5052896;28;20052;-52
2023/02/06 01:33:18;;;;;;;19.92;9.50;;;;;;;6.30;93.84;98209.22;5058497;28;20080;-58
2023/02/06 01:35:56;;;;;;;15.73;8.70;;;;;;;6.07;93.26;98204.25;5041747;28;20076;-54
2023/02/06 01:38:24;;;;;;;18.50;9.88;;;;;;;5.82;97.76;98208.00;5047879;28;20089;-52
2023/02/06 01:40:56;;;;;;;15.48;10.07;;;;;;;6.05;94.74;98211.31;5049333;28;20088;-57
2023/02/06 01:43:26;;;;;;;15.70;9.75;;;;;;;6.38;90.37;98214.09;5045961;28;20530;-56
2023/02/06 01:45:54;;;;;;;15.98;10.02;;;;;;;6.58;88.10;98215.72;5053908;28;20816;-51
2023/02/06 01:48:28;;;;;;;12.23;9.15;;;;;;;6.30;89.26;98216.25;5053073;28;20087;-52
2023/02/06 01:50:58;;;;;;;12.23;8.07;;;;;;;6.23;90.70;98215.69;5050210;28;20092;-53
2023/02/06 01:53:27;;;;;;;13.23;8.23;;;;;;;6.13;92.57;98210.03;5046536;28;20076;-56
2023/02/06 01:55:56;;;;;;;7.78;4.43;;;;;;;6.08;93.46;98217.25;5051475;28;20077;-54
2023/02/06 01:58:28;;;;;;;14.27;8.40;;;;;;;6.09;94.63;98216.34;5050494;28;20080;-55
2023/02/06 02:00:57;;;;;;;13.18;7.60;;;;;;;6.35;93.32;98209.00;5051399;28;20088;-52
2023/02/06 02:03:26;;;;;;;13.27;6.07;;;;;;;6.45;90.35;98206.78;5054974;28;20080;-54
2023/02/06 02:06:00;;;;;;;14.18;8.35;;;;;;;6.55;83.80;98208.84;5050162;28;20524;-51
2023/02/06 02:08:33;;;;;;;12.00;7.78;;;;;;;6.62;82.96;98198.91;5053936;28;20087;-54
2023/02/06 02:11:02;;;;;;;13.82;7.80;;;;;;;6.59;85.00;98194.66;5050124;28;20080;-56
2023/02/06 02:13:33;;;;;;;10.73;5.53;;;;;;;6.09;90.26;98199.75;5051578;28;20084;-53
2023/02/06 02:16:07;;;;;;;11.88;6.72;;;;;;;6.12;90.44;98200.47;5049856;28;20099;-54
2023/02/06 02:18:46;;;;;;;11.25;7.05;;;;;;;6.06;89.53;98211.25;5048175;28;20075;-49
2023/02/06 02:21:51;;;;;;;12.25;7.18;;;;;;;6.59;83.81;98209.56;5046357;28;20510;-57
2023/02/06 02:24:23;;;;;;;12.60;7.35;;;;;;;6.14;88.16;98210.88;5051347;28;20084;-52
2023/02/06 02:27:18;;;;;;;10.70;7.13;;;;;;;6.27;92.14;98208.53;5049119;28;20081;-58
2023/02/06 02:30:27;;;;;;;10.35;6.88;;;;;;;5.92;90.78;98208.44;5048478;28;20084;-55
2023/02/06 02:33:12;;;;;;;10.02;6.97;;;;;;;5.72;88.00;98191.03;5027445;28;20052;-56
2023/02/06 02:35:47;;;;;;;13.63;7.78;;;;;;;6.12;86.18;98197.84;5050923;28;20076;-59
2023/02/06 02:38:26;;;;;;;14.00;7.45;;;;;;;6.18;84.34;98196.72;5055984;28;20091;-51
2023/02/06 02:40:58;;;;;;;12.77;7.95;;;;;;;5.85;91.84;98194.78;5051999;28;20087;-56
2023/02/06 02:43:32;;;;;;;11.50;6.82;;;;;;;5.80;98.64;98185.44;5053105;28;20080;-53
2023/02/06 02:46:05;;;;;;;11.13;7.32;;;;;;;6.13;87.54;98181.22;5046667;28;20060;-54
2023/02/06 02:48:36;;;;;;;10.07;6.78;;;;;;;5.69;87.41;98175.47;5045932;28;20870;-54
2023/02/06 02:51:06;;;;;;;10.23;6.72;;;;;;;5.74;86.32;98183.94;5057083;28;20080;-50
2023/02/06 02:53:34;;;;;;;13.23;6.38;;;;;;;6.17;84.08;98181.94;5049751;28;20469;-52
2023/02/06 02:56:02;;;;;;;9.32;6.32;;;;;;;6.03;88.44;98176.50;5050171;28;20084;-55
2023/02/06 02:58:34;;;;;;;10.07;6.90;;;;;;;5.57;87.55;98183.88;5047839;28;20087;-57
2023/02/06 03:01:05;;;;;;;11.57;7.72;;;;;;;5.68;88.49;98186.88;5045901;28;20091;-56
2023/02/06 03:03:35;;;;;;;10.00;6.95;;;;;;;5.38;86.46;98191.72;5048791;28;20088;-55
2023/02/06 03:06:18;;;;;;;18.17;6.93;;;;;;;5.75;87.08;98193.50;5052248;28;20558;-54
2023/02/06 03:08:50;;;;;;;6.65;4.78;;;;;;;5.19;90.28;98210.00;5047511;28;20111;-55
2023/02/06 03:11:20;;;;;;;13.18;7.60;;;;;;;5.83;86.23;98206.22;5049655;28;20086;-53
2023/02/06 03:13:52;;;;;;;10.50;7.35;;;;;;;5.38;90.53;98213.50;5051874;28;20080;-53
2023/02/06 03:16:23;;;;;;;13.50;7.38;;;;;;;5.41;91.07;98220.38;5050157;28;20080;-56
2023/02/06 03:18:56;;;;;;;12.27;7.35;;;;;;;5.67;87.77;98204.31;5053274;28;20446;-55
2023/02/06 03:21:27;;;;;;;12.05;7.82;;;;;;;5.08;90.55;98205.25;5047426;28;20084;-54
2023/02/06 03:23:58;;;;;;;12.43;7.68;;;;;;;4.71;98.02;98213.84;5049604;28;20049;-56
2023/02/06 03:26:27;;;;;;;;;;;;;;;4.34;100.00;98212.78;5051796;28;20080;-55
2023/02/06 03:28:58;;;;;;;10.73;6.68;;;;;;;4.50;100.00;98223.44;5048585;28;20062;-54
2023/02/06 03:31:29;;;;;;;10.90;6.30;;;;;;;4.48;100.00;98225.28;5048431;28;20076;-56
2023/02/06 03:34:01;;;;;;;9.98;7.03;;;;;;;4.96;98.48;98219.72;5045265;28;20813;-48
2023/02/06 03:36:31;;;;;;;10.50;6.82;;;;;;;4.90;98.37;98220.00;5047846;28;20087;-55
2023/02/06 03:39:00;;;;;;;10.77;6.55;;;;;;;4.57;100.00;98231.84;5049490;28;20079;-58
2023/02/06 03:41:36;;;;;;;11.40;6.97;;;;;;;4.87;100.00;98234.94;5049836;28;20076;-55
2023/02/06 03:44:06;;;;;;;12.30;7.70;;;;;;;4.97;100.00;98225.81;5048389;28;20083;-58
2023/02/06 03:46:34;;;;;;;;;;;;;;;4.90;100.00;98227.81;5047286;28;20097;-54
2023/02/06 03:49:06;;;;;;;12.65;8.02;;;;;;;4.84;99.48;98230.69;5054722;28;20400;-55
2023/02/06 03:51:39;;;;;;;10.88;7.10;;;;;;;4.86;98.97;98239.34;5049031;28;20076;-55
2023/02/06 03:54:08;;;;;;;11.23;7.28;;;;;;;4.83;99.74;98242.06;5047072;28;20091;-52
2023/02/06 03:56:43;;;;;;;13.20;7.63;;;;;;;4.71;100.00;98234.75;5047428;28;20092;-54
2023/02/06 03:59:11;;;;;;;11.95;7.10;;;;;;;4.78;100.00;98235.34;5048261;28;20497;-55
2023/02/06 04:01:41;;;;;;;7.45;4.43;;;;;;;4.35;100.00;98242.34;5045722;28;20075;-50
2023/02/06 04:04:10;;;;;;;10.18;7.03;;;;;;;4.55;100.00;98231.09;5050597;28;20088;-51
2023/02/06 04:06:40;;;;;;;13.90;8.20;;;;;;;4.22;100.00;98237.59;5049126;28;20068;-53
2023/02/06 04:09:08;;;;;;;13.30;8.15;;;;;;;4.49;100.00;98229.56;5048354;28;20064;-58
2023/02/06 04:11:36;;;;;;;10.82;7.22;;;;;;;4.20;100.00;98225.56;5051410;28;20079;-54
2023/02/06 04:14:05;;;;;;;13.80;7.13;;;;;;;4.44;100.00;98211.50;5052273;28;20081;-55
2023/02/06 04:16:33;;;;;;;9.50;6.60;;;;;;;4.19;100.00;98206.41;5049456;28;20072;-52
2023/02/06 04:19:02;;;;;;;13.52;7.32;;;;;;;4.56;100.00;98204.03;5048681;28;20092;-57
2023/02/06 04:21:30;;;;;;;11.77;7.07;;;;;;;4.40;100.00;98204.66;5046087;28;20179;-52
2023/02/06 04:24:00;;;;;;;12.30;7.28;;;;;;;4.55;100.00;98202.34;5052676;28;20080;-54
2023/02/06 04:26:28;;;;;;;11.70;6.72;;;;;;;4.47;100.00;98190.47;5056019;28;20083;-54
2023/02/06 04:28:57;;;;;;;10.93;7.60;;;;;;;4.39;100.00;98192.53;5052159;28;20099;-55
2023/02/06 04:31:25;;;;;;;10.05;6.72;;;;;;;4.01;100.00;98192.31;5050223;28;20084;-53
2023/02/06 04:33:53;;;;;;;11.43;7.70;;;;;;;3.70;100.00;98192.69;5034343;28;20079;-53
2023/02/06 04:36:22;;;;;;;11.45;7.68;;;;;;;3.63;100.00;98185.16;5047159;28;20095;-55
2023/02/06 04:38:50;;;;;;;12.55;7.95;;;;;;;3.09;100.00;98177.59;5049482;28;20134;-56
2023/02/06 04:41:20;;;;;;;13.68;7.63;;;;;;;3.47;100.00;98184.88;5052926;28;20087;-59
2023/02/06 04:43:48;;;;;;;13.80;9.13;;;;;;;4.11;100.00;98186.75;5052110;28;20084;-50
2023/02/06 04:46:17;;;;;;;12.80;8.48;;;;;;;4.15;100.00;98188.31;5047634;28;20079;-57
2023/02/06 04:48:45;;;;;;;13.95;7.68;;;;;;;4.17;100.00;98192.56;5047422;28;20571;-56
2023/02/06 04:51:14;;;;;;;13.27;7.63;;;;;;;4.19;100.00;98184.66;5049773;28;20073;-57
2023/02/06 04:53:42;;;;;;;14.80;8.15;;;;;;;4.17;100.00;98189.97;5053623;28;20081;-59
2023/02/06 04:56:12;;;;;;;13.02;8.57;;;;;;;4.05;100.00;98193.06;5050890;28;20084;-58
2023/02/06 04:58:42;;;;;;;14.02;7.50;;;;;;;3.88;100.00;98198.94;5058278;28;20098;-54
2023/02/06 05:01:10;;;;;;;10.98;7.47;;;;;;;3.88;100.00;98204.16;5051776;28;20089;-55
2023/02/06 05:03:39;;;;;;;15.13;8.90;;;;;;;3.98;100.00;98189.84;5047259;28;20085;-54
2023/02/06 05:06:07;;;;;;;10.73;7.15;;;;;;;3.95;100.00;98195.19;5043815;28;20470;-58
2023/02/06 05:08:36;;;;;;;12.73;7.75;;;;;;;3.93;100.00;98188.34;5051718;28;20732;-59
2023/02/06 05:11:04;;;;;;;12.10;7.57;;;;;;;3.53;100.00;98192.47;5052382;28;20080;-57
2023/02/06 05:13:33;;;;;;;12.40;8.57;;;;;;;3.78;100.00;98200.22;5032735;28;20076;-57
2023/02/06 05:16:06;;;;;;;11.00;7.63;;;;;;;3.78;100.00;98192.38;5046916;28;20085;-55
2023/02/06 05:18:35;;;;;;;11.95;7.65;;;;;;;3.88;100.00;98190.25;5050078;28;20106;-59
2023/02/06 05:21:04;;;;;;;13.07;8.30;;;;;;;3.80;100.00;98174.91;5052198;28;20091;-57
2023/02/06 05:23:32;;;;;;;13.98;8.40;;;;;;;3.71;100.00;98180.50;5050985;28;20212;-53
2023/02/06 05:26:01;;;;;;;15.07;8.23;;;;;;;3.62;100.00;98183.47;5048856;28;20115;-57
2023/02/06 05:28:32;;;;;;;15.23;9.07;;;;;;;3.24;100.00;98175.34;5050081;28;20088;-53
2023/02/06 05:31:00;;;;;;;13.43;8.05;;;;;;;2.97;100.00;98179.81;5050409;28;20076;-57
2023/02/06 05:33:30;;;;;;;14.25;8.85;;;;;;;3.01;100.00;98177.03;5051907;28;20080;-58
2023/02/06 05:36:02;;;;;;;14.98;8.90;;;;;;;2.90;100.00;98179.16;5055641;28;20096;-53
2023/02/06 05:38:30;;;;;;;11.85;8.32;;;;;;;3.27;100.00;98170.00;5051990;28;20484;-54
2023/02/06 05:40:59;;;;;;;15.98;9.27;;;;;;;3.26;100.00;98170.91;5049447;28;20529;-53
2023/02/06 05:43:27;;;;;;;13.68;8.40;;;;;;;3.11;100.00;98174.94;5047807;28;20092;-54
2023/02/06 05:45:55;;;;;;;16.98;9.57;;;;;;;3.19;100.00;98183.31;5049602;28;20091;-56
2023/02/06 05:48:26;;;;;;;15.63;8.88;;;;;;;3.24;100.00;98177.94;5048073;28;20084;-55
2023/02/06 05:50:56;;;;;;;14.35;8.65;;;;;;;3.16;100.00;98164.31;5049647;28;20060;-57
2023/02/06 05:53:24;;;;;;;12.82;7.50;;;;;;;2.72;100.00;98170.25;5048946;28;20081;-57
2023/02/06 05:55:53;;;;;;;16.35;8.35;;;;;;;2.72;100.00;98172.00;5048275;28;20134;-54
2023/02/06 05:58:21;;;;;;;13.18;8.00;;;;;;;3.02;100.00;98180.47;5046750;28;20100;-54
2023/02/06 06:00:50;;;;;;;14.45;8.27;;;;;;;3.01;100.00;98168.34;5050512;28;20467;-57
2023/02/06 06:03:18;;;;;;;14.80;7.97;;;;;;;2.58;100.00;98182.88;5053488;28;20085;-57
2023/02/06 06:05:47;;;;;;;14.57;8.27;;;;;;;2.44;100.00;98180.75;5045791;28;20184;-53
2023/02/06 06:08:17;;;;;;;14.25;7.35;;;;;;;2.76;100.00;98179.66;5046550;28;20085;-55
2023/02/06 06:10:45;;;;;;;13.30;7.57;;;;;;;2.73;100.00;98181.53;5048215;28;20088;-56
2023/02/06 06:13:13;;;;;;;13.32;6.72;;;;;;;2.70;100.00;98176.41;5046546;28;20137;-56
2023/02/06 06:15:42;;;;;;;13.52;6.47;;;;;;;2.63;100.00;98185.34;5045939;28;20085;-54
2023/02/06 06:18:11;;;;;;;11.07;6.47;;;;;;;2.59;100.00;98188.06;5050117;28;20629;-55
2023/02/06 06:20:39;;;;;;;11.73;6.25;;;;;;;2.57;100.00;98191.59;5050063;28;20088;-56
2023/02/06 06:23:07;;;;;;;10.23;5.38;;;;;;;2.43;100.00;98184.28;5050969;28;20377;-54
2023/02/06 06:25:37;;;;;;;13.82;6.90;;;;;;;2.53;100.00;98188.25;5045190;28;20547;-56
2023/02/06 06:28:07;;;;;;;13.52;7.75;;;;;;;2.27;100.00;98193.47;5048109;28;20123;-54
2023/02/06 06:30:36;;;;;;;12.80;5.78;;;;;;;1.98;100.00;98191.84;5054944;28;20496;-56
2023/02/06 06:33:04;;;;;;;5.95;2.92;;;;;;;1.86;100.00;98187.91;5050485;28;20080;-51
2023/02/06 06:35:33;;;;;;;10.75;6.20;;;;;;;1.62;100.00;98192.09;5046023;28;20083;-54
2023/02/06 06:38:02;;;;;;;12.85;7.45;;;;;;;1.73;100.00;98192.63;5046992;28;20076;-57
2023/02/06 06:40:30;;;;;;;12.27;6.47;;;;;;;1.81;100.00;98192.38;5045601;28;20080;-56
2023/02/06 06:43:00;;;;;;;3.80;2.55;;;;;;;1.77;100.00;98199.41;5048018;28;20073;-58
2023/02/06 06:45:29;;;;;;;10.30;5.70;;;;;;;1.86;100.00;98201.75;5042183;28;20072;-54
2023/02/06 06:47:57;;;;;;;11.77;6.70;;;;;;;2.09;100.00;98202.75;5045630;28;20083;-54
2023/02/06 06:50:26;;;;;;;14.65;6.53;;;;;;;2.09;100.00;98200.16;5046961;28;20112;-56
2023/02/06 06:52:55;;;;;;;13.48;7.13;;;;;;;2.07;100.00;98200.22;5049500;28;20080;-56
2023/02/06 06:55:23;;;;;;;16.85;6.95;;;;;;;2.10;100.00;98197.50;5048056;28;20096;-56
2023/02/06 06:57:51;;;;;;;13.38;7.32;;;;;;;2.27;100.00;98190.88;5027807;28;20069;-58
2023/02/06 07:00:22;;;;;;;11.02;6.47;;;;;;;2.43;100.00;98186.03;5049568;28;20080;-57
2023/02/06 07:02:50;;;;;;;12.32;6.85;;;;;;;2.54;100.00;98187.34;5045611;28;20091;-56
2023/02/06 07:05:19;;;;;;;12.52;6.22;;;;;;;2.65;100.00;98191.34;5051625;28;20076;-58
2023/02/06 07:07:47;;;;;;;11.35;6.40;;;;;;;2.94;100.00;98185.97;5047188;28;20095;-54
2023/02/06 07:10:15;;;;;;;13.73;7.57;;;;;;;3.09;100.00;98182.78;5052575;28;20096;-57
2023/02/06 07:12:44;;;;;;;9.95;4.93;;;;;;;2.97;100.00;98192.84;5052332;28;20068;-51
2023/02/06 07:15:12;;;;;;;12.02;6.47;;;;;;;3.09;100.00;98184.56;5061258;28;20071;-56
2023/02/06 07:17:42;;;;;;;12.13;7.45;;;;;;;3.19;100.00;98185.91;5052285;28;20114;-55
2023/02/06 07:20:11;;;;;;;17.08;8.15;;;;;;;2.87;100.00;98183.66;5058199;28;20083;-55
2023/02/06 07:22:39;;;;;;;14.05;8.73;;;;;;;2.89;100.00;98195.72;5048336;28;20072;-56
2023/02/06 07:25:08;;;;;;;15.32;9.27;;;;;;;2.84;100.00;98201.06;5054041;28;20551;-55
2023/02/06 07:27:36;;;;;;;14.88;8.98;;;;;;;3.13;100.00;98196.56;5045005;28;20462;-58
2023/02/06 07:30:06;;;;;;;16.88;9.35;;;;;;;3.05;100.00;98188.19;5047871;28;20079;-58
2023/02/06 07:32:35;;;;;;;24.75;12.70;;;;;;;3.39;100.00;98187.78;5046240;28;20091;-59
2023/02/06 07:35:06;;;;;;;13.73;8.02;;;;;;;3.50;100.00;98190.84;5057513;28;20075;-57
2023/02/06 07:37:34;;;;;;;11.98;7.40;;;;;;;3.52;100.00;98185.56;5055267;28;20462;-53
2023/02/06 07:40:03;;;;;;;16.73;9.20;;;;;;;3.59;100.00;98180.97;5052137;28;20094;-57
2023/02/06 07:42:32;;;;;;;14.30;8.23;;;;;;;3.66;100.00;98204.16;5053054;28;20091;-53
2023/02/06 07:45:00;;;;;;;13.18;7.80;;;;;;;3.60;100.00;98193.09;5049381;28;20729;-53
2023/02/06 07:47:29;;;;;;;14.93;8.82;;;;;;;3.75;100.00;98195.09;5052348;28;20091;-57
2023/02/06 07:49:57;;;;;;;14.85;8.35;;;;;;;3.50;100.00;98198.66;5048284;28;20819;-54
2023/02/06 07:52:27;;;;;;;16.50;6.07;;;;;;;3.60;100.00;98193.94;5057398;28;20076;-53
2023/02/06 07:54:55;;;;;;;12.45;6.90;;;;;;;3.61;100.00;98195.63;5049234;28;20090;-53
2023/02/06 07:57:24;;;;;;;16.40;8.82;;;;;;;3.82;100.00;98199.22;5058459;28;20084;-56
2023/02/06 07:59:52;;;;;;;15.70;8.27;;;;;;;3.64;100.00;98202.50;5058134;28;20084;-54
2023/02/06 08:02:21;;;;;;;15.98;8.35;;;;;;;3.63;100.00;98204.28;5056646;28;20088;-58
2023/02/06 08:04:49;;;;;;;9.48;5.55;;;;;;;3.67;100.00;98208.44;5048196;28;20111;-52
2023/02/06 08:07:17;;;;;;;7.70;4.88;;;;;;;3.14;100.00;98215.69;5053842;28;20091;-58
2023/02/06 08:09:47;;;;;;;6.90;4.75;;;;;;;3.80;100.00;98206.22;5045815;28;20461;-55
2023/02/06 08:12:16;;;;;;;5.60;3.70;;;;;;;3.97;100.00;98200.34;5048636;28;20080;-58
2023/02/06 08:14:44;;;;;;;3.97;3.00;;;;;;;3.90;100.00;98204.13;5045270;28;20072;-54
2023/02/06 08:17:13;;;;;;;5.88;3.90;;;;;;;3.87;100.00;98210.31;5043593;28;20096;-53
2023/02/06 08:19:41;;;;;;;8.52;5.53;;;;;;;3.92;100.00;98207.50;5049361;28;20084;-55
2023/02/06 08:22:09;;;;;;;8.30;4.97;;;;;;;3.78;100.00;98214.09;5048795;28;20095;-51
2023/02/06 08:24:38;;;;;;;8.20;5.13;;;;;;;4.18;100.00;98209.09;5050775;28;20567;-53
2023/02/06 08:27:07;;;;;;;12.80;8.25;;;;;;;4.37;100.00;98202.22;5048358;28;20081;-55
2023/02/06 08:29:41;;;;;;;6.97;4.18;;;;;;;4.46;100.00;98206.19;5056269;28;20092;-55
2023/02/06 08:32:09;;;;;;;6.18;3.75;;;;;;;4.79;100.00;98195.25;5049741;28;20080;-54
2023/02/06 08:34:38;;;;;;;4.53;3.30;;;;;;;4.48;100.00;98197.38;5048581;28;20115;-53
2023/02/06 08:37:07;;;;;;;6.60;4.10;;;;;;;4.78;100.00;98203.97;5052275;28;20497;-57
2023/02/06 08:39:36;;;;;;;5.57;2.58;;;;;;;4.63;100.00;98193.25;5053154;28;20091;-55
2023/02/06 08:42:05;;;;;;;6.50;4.00;;;;;;;4.73;100.00;98205.03;5046612;28;20099;-57
2023/02/06 08:44:35;;;;;;;7.47;4.20;;;;;;;4.76;96.63;98209.28;5058510;28;20182;-54
2023/02/06 08:47:03;;;;;;;7.53;3.65;;;;;;;4.89;94.30;98193.94;5048562;28;20525;-55
2023/02/06 08:49:38;;;;;;;6.75;4.50;;;;;;;4.59;90.88;98198.69;5048813;28;20518;-55
2023/02/06 08:52:06;;;;;;;11.75;4.63;;;;;;;4.83;93.95;98202.03;5053067;28;20473;-55
2023/02/06 08:54:34;;;;;;;8.00;3.90;;;;;;;5.10;92.73;98197.38;5049344;28;20152;-52
2023/02/06 08:57:06;;;;;;;3.83;3.40;;;;;;;5.18;92.10;98185.63;5052226;28;20131;-56
2023/02/06 08:59:36;;;;;;;6.82;4.43;;;;;;;5.32;86.20;98181.53;5040902;28;20093;-57
2023/02/06 09:02:05;;;;;;;10.70;6.05;;;;;;;5.51;87.25;98194.66;5049420;28;20084;-56
2023/02/06 09:04:36;;;;;;;4.47;2.88;;;;;;;5.48;86.14;98191.25;5045418;28;20079;-51
2023/02/06 09:07:05;;;;;;;5.07;3.85;;;;;;;5.67;82.46;98196.47;5049907;28;20107;-51
2023/02/06 09:09:33;;;;;;;5.30;3.88;;;;;;;5.75;76.66;98198.75;5055124;28;20470;-52
2023/02/06 09:12:02;;;;;;;8.65;5.05;;;;;;;6.22;73.53;98195.63;5056252;28;20082;-52
2023/02/06 09:14:31;;;;;;;5.30;3.63;;;;;;;6.04;72.47;98186.91;5049494;28;20174;-54
2023/02/06 09:17:01;;;;;;;8.00;4.50;;;;;;;6.50;68.55;98189.88;5049719;28;20099;-55
2023/02/06 09:19:29;;;;;;;4.38;3.08;;;;;;;6.11;67.99;98193.53;5050578;28;20084;-53
2023/02/06 09:21:58;;;;;;;4.55;3.30;;;;;;;6.30;69.82;98190.88;5056966;28;20091;-53
2023/02/06 09:24:29;;;;;;;6.57;3.53;;;;;;;5.88;70.60;98202.50;5055427;28;20076;-52
2023/02/06 09:26:57;;;;;;;11.88;3.65;;;;;;;5.80;69.23;98201.97;5048556;28;20080;-53
2023/02/06 09:29:30;;;;;;;10.05;4.40;;;;;;;6.44;66.76;98198.06;5044973;28;20096;-51
2023/02/06 09:32:01;;;;;;;11.00;6.38;;;;;;;6.72;64.75;98194.91;5047785;28;20514;-52
2023/02/06 09:34:29;;;;;;;9.48;5.88;;;;;;;6.85;63.40;98184.66;5048056;28;20084;-57
2023/02/06 09:36:58;;;;;;;8.38;5.10;;;;;;;7.17;62.09;98182.94;5045843;28;20093;-52
2023/02/06 09:39:27;;;;;;;9.32;6.65;;;;;;;7.59;57.39;98186.81;5047571;28;20524;-55
2023/02/06 09:41:59;;;;;;;9.23;6.20;;;;;;;8.16;54.19;98181.06;5049185;28;20079;-50
2023/02/06 09:44:31;;;;;;;12.23;7.13;;;;;;;8.42;53.17;98180.41;5052902;28;20104;-57
2023/02/06 09:47:04;;;;;;;9.55;5.90;;;;;;;9.07;51.19;98171.34;5047943;28;20555;-58
2023/02/06 09:49:36;;;;;;;9.00;6.22;;;;;;;8.76;50.57;98171.41;5047546;28;20085;-55
2023/02/06 09:52:21;;;;;;;8.43;5.95;;;;;;;8.97;50.13;98165.78;5051253;28;20053;-55
2023/02/06 09:54:57;;;;;;;8.52;5.35;;;;;;;8.40;50.72;98168.31;5050293;28;20675;-57
2023/02/06 09:57:34;;;;;;;9.10;5.47;;;;;;;8.78;50.40;98171.34;5044858;28;20082;-55
2023/02/06 10:00:09;;;;;;;5.82;3.70;;;;;;;8.64;50.00;98179.19;5046580;28;20092;-57
2023/02/06 10:02:55;;;;;;;3.97;2.80;;;;;;;9.02;48.47;98167.22;5047825;28;20087;-53
2023/02/06 10:05:27;;;;;;;7.93;5.30;;;;;;;9.55;47.67;98156.94;5046860;28;20552;-52
2023/02/06 10:08:03;;;;;;;8.70;4.97;;;;;;;9.09;47.18;98167.69;5049158;28;20479;-56
2023/02/06 10:10:38;;;;;;;6.93;4.63;;;;;;;8.15;51.06;98177.56;5054095;28;20088;-52
2023/02/06 10:13:13;;;;;;;6.57;4.05;;;;;;;8.96;49.05;98166.75;5047617;28;20137;-56
2023/02/06 10:15:45;;;;;;;5.40;3.58;;;;;;;8.98;49.85;98165.72;5046225;28;20087;-56
2023/02/06 10:18:19;;;;;;;12.25;6.93;;;;;;;8.47;51.37;98167.03;5049894;28;20107;-60
2023/02/06 10:20:51;;;;;;;7.60;4.88;;;;;;;8.50;49.60;98164.22;5050462;28;20087;-52
2023/02/06 10:23:23;;;;;;;8.50;4.70;;;;;;;8.59;51.83;98150.50;5050295;28;20100;-57
2023/02/06 10:26:02;;;;;;;8.45;4.50;;;;;;;8.65;52.04;98150.16;5048049;28;20064;-56
2023/02/06 10:28:32;;;;;;;6.70;4.45;;;;;;;9.08;49.19;98131.78;5051494;28;20084;-55
2023/02/06 10:31:12;;;;;;;6.47;4.60;;;;;;;8.75;50.75;98126.78;5046593;28;20091;-57
2023/02/06 10:33:47;;;;;;;8.75;4.47;;;;;;;9.02;50.54;98119.84;5044687;28;20083;-54
2023/02/06 10:36:26;;;;;;;8.60;4.70;;;;;;;8.73;52.01;98120.75;5051961;28;20081;-57
2023/02/06 10:39:12;;;;;;;9.95;4.93;;;;;;;8.90;49.57;98111.84;5052296;28;20060;-56
2023/02/06 10:41:46;;;;;;;8.15;4.50;;;;;;;9.15;49.22;98100.66;5049298;28;20084;-53
2023/02/06 10:44:27;;;;;;;6.70;4.35;;;;;;;8.74;49.51;98106.66;5046783;28;20130;-51
2023/02/06 10:46:56;;;;;;;8.20;4.93;;;;;;;8.48;48.85;98095.09;5052211;28;20085;-58
2023/02/06 10:49:30;;;;;;;7.28;4.43;;;;;;;8.96;48.92;98095.69;5049562;28;20481;-56
2023/02/06 10:52:00;;;;;;;8.20;4.50;;;;;;;9.20;51.19;98095.97;5048915;28;20080;-56
2023/02/06 10:54:34;;;;;;;7.38;4.35;;;;;;;9.52;49.04;98089.50;5050473;28;20107;-58
2023/02/06 10:57:03;;;;;;;8.13;4.40;;;;;;;9.39;48.17;98087.75;5061595;28;20083;-55
2023/02/06 10:59:33;;;;;;;7.50;4.20;;;;;;;9.24;47.71;98084.31;5049708;28;20084;-55
2023/02/06 11:02:19;;;;;;;8.95;4.72;;;;;;;9.24;47.67;98082.50;5042888;28;20077;-56
2023/02/06 11:04:52;;;;;;;6.50;4.50;;;;;;;9.14;47.69;98085.81;5045930;28;20083;-56
2023/02/06 11:07:25;;;;;;;6.95;4.00;;;;;;;9.24;47.55;98076.41;5050976;28;20088;-54
2023/02/06 11:09:54;;;;;;;7.95;3.72;;;;;;;9.22;47.26;98073.00;5046332;28;20095;-55
2023/02/06 11:12:28;;;;;;;6.95;4.10;;;;;;;9.49;47.10;98073.91;5046363;28;20537;-56
2023/02/06 11:14:58;;;;;;;10.85;4.63;;;;;;;9.19;48.15;98078.50;5044802;28;20077;-55
2023/02/06 11:17:27;;;;;;;5.03;3.30;;;;;;;9.17;46.90;98075.09;5049299;28;20084;-58
2023/02/06 11:20:01;;;;;;;10.45;4.13;;;;;;;9.10;47.35;98065.91;5044616;28;20526;-56
2023/02/06 11:22:31;;;;;;;7.85;5.40;;;;;;;8.27;48.67;98066.47;5046262;28;20084;-54
2023/02/06 11:25:35;;;;;;;10.95;5.88;;;;;;;8.67;49.20;98064.13;5048656;28;20077;-55
2023/02/06 11:28:12;;;;;;;8.55;5.90;;;;;;;8.62;50.47;98060.09;5042704;28;20091;-52
2023/02/06 11:30:43;;;;;;;8.75;6.20;;;;;;;8.10;50.04;98061.38;5047018;28;20082;-55
2023/02/06 11:33:19;;;;;;;8.85;5.88;;;;;;;7.81;50.11;98052.53;5044655;28;20080;-54
2023/02/06 11:35:51;;;;;;;11.43;6.22;;;;;;;8.11;50.08;98054.34;5045594;28;20076;-53
2023/02/06 11:38:21;;;;;;;7.90;5.75;;;;;;;8.21;49.58;98051.06;5048722;28;20500;-54
2023/02/06 11:40:55;;;;;;;7.53;5.80;;;;;;;8.53;48.12;98045.69;5042532;28;20135;-56
2023/02/06 11:43:25;;;;;;;8.40;5.40;;;;;;;8.55;48.70;98047.31;5046927;28;20084;-57
2023/02/06 11:46:07;;;;;;;8.43;5.93;;;;;;;8.64;49.66;98043.28;5046719;28;20096;-57
2023/02/06 11:48:38;;;;;;;7.40;4.85;;;;;;;8.51;48.64;98032.66;5048569;28;20080;-55